createdAt,value
2019-05-30T00:02:00.503Z,7.60
2019-05-30T00:04:29.729Z,7.50
2019-05-30T00:06:58.658Z,7.50
2019-05-30T00:09:27.191Z,7.40
2019-05-30T00:11:56.672Z,7.40
2019-05-30T00:14:25.148Z,7.40
2019-05-30T00:16:54.649Z,7.40
2019-05-30T00:19:23.092Z,7.50
2019-05-30T00:21:51.505Z,7.40
2019-05-30T00:24:19.941Z,7.30
2019-05-30T00:26:48.391Z,7.30
2019-05-30T00:29:16.821Z,7.20
2019-05-30T00:31:45.253Z,7.10
2019-05-30T00:34:13.691Z,7.00
2019-05-30T00:36:42.121Z,7.00
2019-05-30T00:39:10.591Z,7.00
2019-05-30T00:41:58.370Z,7.00
2019-05-30T00:44:26.813Z,7.00
2019-05-30T00:46:56.082Z,6.90
2019-05-30T00:49:24.726Z,6.90
2019-05-30T00:51:53.155Z,6.90
2019-05-30T00:54:21.608Z,6.90
2019-05-30T00:56:50.034Z,6.80
2019-05-30T00:59:19.236Z,6.80
2019-05-30T01:01:47.712Z,6.70
2019-05-30T01:04:16.163Z,7.00
2019-05-30T01:06:44.585Z,8.20
2019-05-30T01:09:13.044Z,8.60
2019-05-30T01:11:41.461Z,8.30
2019-05-30T01:14:09.920Z,8.20
2019-05-30T01:16:41.738Z,7.80
2019-05-30T01:19:08.577Z,7.90
2019-05-30T01:21:57.106Z,8.00
2019-05-30T01:24:25.671Z,7.70
2019-05-30T01:26:54.090Z,8.30
2019-05-30T01:29:22.539Z,8.10
2019-05-30T01:32:28.980Z,8.50
2019-05-30T01:34:59.781Z,8.80
2019-05-30T01:37:28.332Z,8.70
2019-05-30T01:39:57.692Z,8.50
2019-05-30T01:42:26.251Z,8.20
2019-05-30T01:44:54.770Z,8.30
2019-05-30T01:47:23.255Z,8.20
2019-05-30T01:49:51.742Z,8.10
2019-05-30T01:52:20.169Z,8.30
2019-05-30T01:54:48.607Z,8.30
2019-05-30T01:57:17.032Z,8.20
2019-05-30T01:59:45.468Z,8.20
2019-05-30T02:02:13.992Z,8.00
2019-05-30T02:04:42.437Z,8.10
2019-05-30T02:07:10.872Z,8.40
2019-05-30T02:09:39.319Z,7.90
2019-05-30T02:12:07.741Z,7.80
2019-05-30T02:14:36.236Z,7.80
2019-05-30T02:17:06.125Z,7.90
2019-05-30T02:19:34.571Z,7.80
2019-05-30T02:22:03.784Z,7.70
2019-05-30T02:24:32.346Z,7.60
2019-05-30T02:27:02.095Z,7.40
2019-05-30T02:29:30.732Z,7.40
2019-05-30T02:32:19.423Z,7.70
2019-05-30T02:34:47.882Z,7.90
2019-05-30T02:37:16.332Z,8.10
2019-05-30T02:39:44.775Z,8.00
2019-05-30T02:42:13.212Z,7.80
2019-05-30T02:44:41.669Z,7.80
2019-05-30T02:47:11.579Z,7.70
2019-05-30T02:49:40.310Z,7.80
2019-05-30T02:52:10.688Z,7.50
2019-05-30T02:54:38.950Z,7.10
2019-05-30T02:57:07.916Z,7.30
2019-05-30T02:59:36.951Z,7.40
2019-05-30T03:02:09.926Z,7.20
2019-05-30T03:04:35.544Z,7.00
2019-05-30T03:07:06.450Z,7.50
2019-05-30T03:09:34.368Z,7.60
2019-05-30T03:12:04.104Z,7.80
2019-05-30T03:14:33.267Z,7.90
2019-05-30T03:17:02.586Z,7.70
2019-05-30T03:19:31.932Z,7.70
2019-05-30T03:22:02.808Z,7.30
2019-05-30T03:24:30.542Z,7.00
2019-05-30T03:26:58.978Z,6.90
2019-05-30T03:29:27.420Z,7.30
2019-05-30T03:31:56.006Z,7.70
2019-05-30T03:34:28.292Z,7.90
2019-05-30T03:36:54.612Z,7.70
2019-05-30T03:39:23.128Z,7.60
2019-05-30T03:41:51.575Z,7.50
2019-05-30T03:44:20.068Z,7.80
2019-05-30T03:46:51.658Z,7.90
2019-05-30T03:49:23.164Z,7.90
2019-05-30T03:51:53.551Z,7.70
2019-05-30T03:54:24.281Z,7.90
2019-05-30T03:57:01.598Z,8.00
2019-05-30T03:59:35.773Z,8.10
2019-05-30T04:02:13.948Z,8.20
2019-05-30T04:04:57.765Z,8.30
2019-05-30T04:07:27.234Z,8.40
2019-05-30T04:09:57.204Z,8.50
2019-05-30T04:12:43.858Z,8.50
2019-05-30T04:15:32.260Z,8.30
2019-05-30T04:18:00.847Z,8.60
2019-05-30T04:20:30.262Z,9.00
2019-05-30T04:22:58.976Z,9.00
2019-05-30T04:25:27.745Z,8.90
2019-05-30T04:27:56.200Z,8.60
2019-05-30T04:30:24.631Z,8.80
2019-05-30T04:32:53.137Z,9.00
2019-05-30T04:35:21.557Z,9.10
2019-05-30T04:37:50.492Z,9.20
2019-05-30T04:40:19.670Z,9.10
2019-05-30T04:42:48.323Z,8.80
2019-05-30T04:45:17.936Z,8.80
2019-05-30T04:47:46.597Z,8.90
2019-05-30T04:50:16.387Z,9.00
2019-05-30T04:52:45.005Z,9.00
2019-05-30T04:55:17.517Z,9.10
2019-05-30T04:57:45.481Z,9.30
2019-05-30T05:00:15.202Z,9.30
2019-05-30T05:02:43.780Z,9.30
2019-05-30T05:05:13.350Z,10.20
2019-05-30T05:07:42.579Z,11.10
2019-05-30T05:10:12.065Z,11.60
2019-05-30T05:12:40.574Z,12.20
2019-05-30T05:15:09.355Z,12.90
2019-05-30T05:17:37.786Z,13.80
2019-05-30T05:20:09.373Z,13.60
2019-05-30T05:22:37.838Z,14.10
2019-05-30T05:25:09.086Z,13.10
2019-05-30T05:27:37.532Z,12.60
2019-05-30T05:30:08.481Z,13.00
2019-05-30T05:32:36.941Z,13.40
2019-05-30T05:35:06.865Z,13.30
2019-05-30T05:37:35.311Z,12.90
2019-05-30T05:40:07.657Z,12.90
2019-05-30T05:42:36.128Z,13.10
2019-05-30T05:45:08.742Z,13.00
2019-05-30T05:47:37.182Z,13.10
2019-05-30T05:50:06.261Z,12.80
2019-05-30T05:52:34.696Z,12.60
2019-05-30T05:55:03.393Z,13.00
2019-05-30T05:57:31.846Z,13.10
2019-05-30T06:00:00.917Z,12.80
2019-05-30T06:02:30.292Z,12.80
2019-05-30T06:04:58.713Z,13.40
2019-05-30T06:07:27.167Z,13.70
2019-05-30T06:09:55.597Z,14.30
2019-05-30T06:12:24.119Z,14.30
2019-05-30T06:14:52.566Z,14.90
2019-05-30T06:17:21.250Z,14.80
2019-05-30T06:19:49.736Z,14.80
2019-05-30T06:22:19.120Z,14.70
2019-05-30T06:24:47.792Z,14.50
2019-05-30T06:27:16.237Z,14.30
2019-05-30T06:29:44.664Z,14.30
2019-05-30T06:32:13.104Z,14.70
2019-05-30T06:34:41.635Z,15.30
2019-05-30T06:37:12.049Z,15.00
2019-05-30T06:39:40.221Z,14.70
2019-05-30T06:42:08.729Z,14.60
2019-05-30T06:44:37.176Z,14.60
2019-05-30T06:47:05.619Z,14.50
2019-05-30T06:49:34.062Z,14.50
2019-05-30T06:52:02.507Z,14.50
2019-05-30T06:54:31.555Z,14.60
2019-05-30T06:57:00.596Z,14.80
2019-05-30T06:59:29.751Z,15.30
2019-05-30T07:01:58.342Z,15.50
2019-05-30T07:04:27.834Z,16.00
2019-05-30T07:06:57.081Z,16.80
2019-05-30T07:09:26.800Z,17.30
2019-05-30T07:11:55.287Z,17.80
2019-05-30T07:14:25.102Z,16.90
2019-05-30T07:16:53.651Z,16.80
2019-05-30T07:19:23.240Z,17.30
2019-05-30T07:21:51.915Z,17.10
2019-05-30T07:24:20.360Z,16.80
2019-05-30T07:26:48.861Z,16.40
2019-05-30T07:29:17.316Z,16.20
2019-05-30T07:31:45.816Z,16.10
2019-05-30T07:34:14.276Z,16.20
2019-05-30T07:36:42.719Z,16.10
2019-05-30T07:39:11.185Z,16.30
2019-05-30T07:41:39.624Z,16.30
2019-05-30T07:44:08.081Z,16.10
2019-05-30T07:46:37.250Z,16.20
2019-05-30T07:49:26.285Z,16.00
2019-05-30T07:51:54.893Z,16.00
2019-05-30T07:54:23.394Z,16.30
2019-05-30T07:56:51.842Z,16.50
2019-05-30T07:59:20.282Z,16.70
2019-05-30T08:01:48.759Z,16.50
2019-05-30T08:04:17.216Z,16.50
2019-05-30T08:06:45.655Z,16.90
2019-05-30T08:09:14.099Z,17.20
2019-05-30T08:11:42.621Z,17.10
2019-05-30T08:14:11.174Z,17.20
2019-05-30T08:16:39.621Z,17.20
2019-05-30T08:19:08.079Z,16.90
2019-05-30T08:21:36.508Z,16.80
2019-05-30T08:24:05.381Z,16.90
2019-05-30T08:26:34.306Z,16.90
2019-05-30T08:29:02.945Z,17.10
2019-05-30T08:31:32.427Z,17.10
2019-05-30T08:34:01.013Z,17.30
2019-05-30T08:36:30.737Z,17.30
2019-05-30T08:38:59.367Z,17.50
2019-05-30T08:41:29.031Z,17.90
2019-05-30T08:43:57.707Z,18.10
2019-05-30T08:46:45.555Z,18.50
2019-05-30T08:49:14.002Z,18.50
2019-05-30T08:51:42.429Z,19.20
2019-05-30T08:54:13.815Z,19.30
2019-05-30T08:56:41.040Z,19.10
2019-05-30T08:59:09.484Z,18.70
2019-05-30T09:01:37.934Z,18.30
2019-05-30T09:04:06.372Z,18.60
2019-05-30T09:06:35.799Z,18.90
2019-05-30T09:09:06.532Z,19.10
2019-05-30T09:11:35.891Z,18.80
2019-05-30T09:14:05.731Z,18.60
2019-05-30T09:16:34.214Z,18.80
2019-05-30T09:19:02.660Z,18.60
2019-05-30T09:21:31.097Z,19.00
2019-05-30T09:24:01.312Z,18.80
2019-05-30T09:26:29.690Z,18.60
2019-05-30T09:28:58.130Z,18.50
2019-05-30T09:31:26.564Z,18.50
2019-05-30T09:33:54.999Z,18.80
2019-05-30T09:36:23.442Z,18.50
2019-05-30T09:38:51.877Z,18.40
2019-05-30T09:41:20.344Z,18.30
2019-05-30T09:43:48.776Z,18.20
2019-05-30T09:46:17.205Z,18.60
2019-05-30T09:48:46.696Z,18.70
2019-05-30T09:51:15.404Z,18.90
2019-05-30T09:53:44.019Z,18.90
2019-05-30T09:56:12.564Z,19.00
2019-05-30T09:58:42.296Z,20.60
2019-05-30T10:01:11.231Z,22.40
2019-05-30T10:03:39.665Z,22.30
2019-05-30T10:06:08.132Z,21.90
2019-05-30T10:08:36.574Z,21.80
2019-05-30T10:11:05.095Z,21.90
2019-05-30T10:13:33.539Z,22.30
2019-05-30T10:16:01.974Z,22.70
2019-05-30T10:18:30.421Z,23.10
2019-05-30T10:20:58.861Z,23.70
2019-05-30T10:23:27.288Z,24.60
2019-05-30T10:25:55.737Z,23.90
2019-05-30T10:28:25.839Z,23.80
2019-05-30T10:30:57.743Z,23.70
2019-05-30T10:33:24.503Z,22.90
2019-05-30T10:35:53.483Z,22.60
2019-05-30T10:38:22.150Z,23.70
2019-05-30T10:40:50.983Z,23.90
2019-05-30T10:43:20.608Z,23.20
2019-05-30T10:45:49.489Z,23.10
2019-05-30T10:48:20.715Z,22.80
2019-05-30T10:50:48.636Z,24.40
2019-05-30T10:53:17.634Z,23.60
2019-05-30T10:55:46.938Z,23.00
2019-05-30T10:58:25.420Z,22.10
2019-05-30T11:00:57.887Z,22.80
2019-05-30T11:03:27.560Z,24.20
2019-05-30T11:06:04.701Z,24.30
2019-05-30T11:08:34.641Z,24.10
2019-05-30T11:11:03.097Z,24.20
2019-05-30T11:13:31.541Z,23.90
2019-05-30T11:16:00.051Z,24.40
2019-05-30T11:18:28.509Z,23.20
2019-05-30T11:20:58.471Z,23.40
2019-05-30T11:23:27.171Z,23.70
2019-05-30T11:25:56.682Z,23.50
2019-05-30T11:28:25.304Z,24.00
2019-05-30T11:31:13.065Z,24.10
2019-05-30T11:33:41.536Z,24.60
2019-05-30T11:36:09.973Z,23.50
2019-05-30T11:38:38.427Z,23.40
2019-05-30T11:41:06.864Z,24.90
2019-05-30T11:43:55.553Z,24.90
2019-05-30T11:46:24.162Z,24.70
2019-05-30T11:48:53.655Z,24.20
2019-05-30T11:51:22.213Z,25.10
2019-05-30T11:53:51.729Z,25.30
2019-05-30T11:56:20.445Z,25.00
2019-05-30T11:58:49.841Z,25.40
2019-05-30T12:01:18.409Z,24.90
2019-05-30T12:03:46.869Z,24.80
2019-05-30T12:06:15.328Z,25.10
2019-05-30T12:08:43.765Z,25.10
2019-05-30T12:11:12.202Z,25.30
2019-05-30T12:13:40.998Z,26.40
2019-05-30T12:16:09.503Z,26.00
2019-05-30T12:18:38.035Z,25.20
2019-05-30T12:21:06.487Z,25.70
2019-05-30T12:23:34.935Z,25.50
2019-05-30T12:26:03.350Z,25.20
2019-05-30T12:28:31.803Z,24.80
2019-05-30T12:31:04.528Z,25.10
2019-05-30T12:33:30.428Z,24.60
2019-05-30T12:35:58.954Z,24.60
2019-05-30T12:38:27.477Z,25.10
2019-05-30T12:40:56.715Z,25.90
2019-05-30T12:43:25.317Z,25.70
2019-05-30T12:45:54.843Z,25.90
2019-05-30T12:48:23.488Z,25.20
2019-05-30T12:50:53.081Z,24.80
2019-05-30T12:53:21.632Z,24.70
2019-05-30T12:55:50.066Z,24.90
2019-05-30T12:58:18.521Z,25.40
2019-05-30T13:00:47.099Z,25.70
2019-05-30T13:03:15.545Z,25.70
2019-05-30T13:05:43.988Z,25.80
2019-05-30T13:08:21.105Z,25.20
2019-05-30T13:10:42.599Z,26.00
2019-05-30T13:13:11.103Z,26.30
2019-05-30T13:15:39.609Z,25.30
2019-05-30T13:18:08.055Z,25.70
2019-05-30T13:20:36.564Z,25.50
2019-05-30T13:23:05.307Z,25.80
2019-05-30T13:25:33.764Z,25.70
2019-05-30T13:28:05.467Z,25.20
2019-05-30T13:30:32.436Z,25.90
2019-05-30T13:33:00.968Z,25.50
2019-05-30T13:35:29.396Z,24.80
2019-05-30T13:37:58.963Z,24.80
2019-05-30T13:40:27.549Z,24.40
2019-05-30T13:42:56.001Z,23.90
2019-05-30T13:45:24.442Z,23.10
2019-05-30T13:47:52.882Z,22.70
2019-05-30T13:50:21.467Z,22.60
2019-05-30T13:52:49.906Z,22.60
2019-05-30T13:55:18.356Z,22.50
2019-05-30T13:57:46.802Z,22.20
2019-05-30T14:00:18.777Z,22.10
2019-05-30T14:02:47.325Z,22.30
2019-05-30T14:05:16.242Z,22.20
2019-05-30T14:07:44.668Z,22.50
2019-05-30T14:10:15.263Z,22.60
2019-05-30T14:12:43.704Z,22.40
2019-05-30T14:15:14.740Z,22.70
2019-05-30T14:17:43.416Z,22.80
2019-05-30T14:20:12.999Z,23.00
2019-05-30T14:22:41.450Z,23.10
2019-05-30T14:25:11.933Z,23.00
2019-05-30T14:27:40.589Z,22.70
2019-05-30T14:30:10.995Z,22.60
2019-05-30T14:32:39.682Z,22.60
2019-05-30T14:35:10.530Z,22.70
2019-05-30T14:37:39.238Z,22.50
2019-05-30T14:40:11.075Z,22.50
2019-05-30T14:42:39.951Z,22.50
2019-05-30T14:45:10.632Z,22.20
2019-05-30T14:47:39.248Z,22.10
2019-05-30T14:50:11.013Z,22.40
2019-05-30T14:52:39.799Z,22.40
2019-05-30T14:55:09.122Z,22.60
2019-05-30T14:57:37.867Z,22.50
2019-05-30T15:00:09.317Z,22.40
2019-05-30T15:02:38.120Z,22.30
2019-05-30T15:05:07.801Z,22.20
2019-05-30T15:07:36.318Z,22.10
2019-05-30T15:10:08.824Z,22.00
2019-05-30T15:12:37.435Z,21.80
2019-05-30T15:15:09.051Z,21.70
2019-05-30T15:17:37.591Z,21.70
2019-05-30T15:20:09.989Z,21.70
2019-05-30T15:22:38.094Z,21.50
2019-05-30T15:25:08.132Z,21.80
2019-05-30T15:27:36.933Z,22.00
2019-05-30T15:30:10.644Z,21.90
2019-05-30T15:32:39.578Z,22.10
2019-05-30T15:35:08.922Z,22.10
2019-05-30T15:37:40.628Z,22.20
2019-05-30T15:40:08.796Z,22.10
2019-05-30T15:42:37.374Z,22.10
2019-05-30T15:45:11.926Z,22.10
2019-05-30T15:47:40.863Z,22.00
2019-05-30T15:50:12.405Z,22.00
2019-05-30T15:52:41.449Z,21.90
2019-05-30T15:55:11.517Z,21.70
2019-05-30T15:57:39.975Z,21.60
2019-05-30T16:00:10.150Z,21.40
2019-05-30T16:02:38.846Z,21.40
2019-05-30T16:05:08.084Z,21.40
2019-05-30T16:07:36.508Z,21.50
2019-05-30T16:10:10.860Z,21.50
2019-05-30T16:12:39.598Z,21.60
2019-05-30T16:15:08.697Z,21.40
2019-05-30T16:17:37.140Z,21.40
2019-05-30T16:20:07.798Z,21.40
2019-05-30T16:22:36.270Z,21.40
2019-05-30T16:25:06.054Z,21.50
2019-05-30T16:27:34.539Z,21.50
2019-05-30T16:30:03.587Z,21.50
2019-05-30T16:32:32.153Z,21.60
2019-05-30T16:35:00.586Z,21.60
2019-05-30T16:37:29.024Z,21.50
2019-05-30T16:40:05.780Z,21.30
2019-05-30T16:42:27.834Z,21.20
2019-05-30T16:44:56.327Z,21.30
2019-05-30T16:47:25.104Z,21.20
2019-05-30T16:49:53.693Z,21.30
2019-05-30T16:52:23.138Z,21.30
2019-05-30T16:54:51.701Z,21.40
2019-05-30T16:57:20.716Z,21.30
2019-05-30T16:59:49.340Z,21.30
2019-05-30T17:02:18.843Z,21.30
2019-05-30T17:04:47.399Z,21.30
2019-05-30T17:07:16.904Z,21.20
2019-05-30T17:09:45.405Z,21.20
2019-05-30T17:12:13.919Z,21.20
2019-05-30T17:14:42.710Z,21.20
2019-05-30T17:17:12.810Z,21.20
2019-05-30T17:19:41.263Z,21.10
2019-05-30T17:22:09.853Z,21.10
2019-05-30T17:24:39.953Z,21.10
2019-05-30T17:27:08.473Z,21.00
2019-05-30T17:29:37.086Z,21.00
2019-05-30T17:32:05.637Z,20.90
2019-05-30T17:34:34.235Z,20.90
2019-05-30T17:37:02.773Z,20.90
2019-05-30T17:39:31.201Z,20.80
2019-05-30T17:41:59.657Z,20.80
2019-05-30T17:44:29.624Z,20.90
2019-05-30T17:46:58.506Z,20.80
2019-05-30T17:49:29.929Z,20.70
2019-05-30T17:51:58.618Z,20.70
2019-05-30T17:54:28.044Z,20.70
2019-05-30T17:56:56.722Z,20.60
2019-05-30T17:59:26.403Z,20.70
2019-05-30T18:01:56.638Z,20.70
2019-05-30T18:04:25.136Z,20.60
2019-05-30T18:06:53.739Z,20.60
2019-05-30T18:09:23.047Z,20.50
2019-05-30T18:11:52.459Z,20.50
2019-05-30T18:14:21.108Z,20.50
2019-05-30T18:16:49.647Z,20.50
2019-05-30T18:19:18.081Z,20.40
2019-05-30T18:21:46.527Z,20.30
2019-05-30T18:24:14.967Z,20.30
2019-05-30T18:26:43.419Z,20.30
2019-05-30T18:29:11.868Z,20.30
2019-05-30T18:31:40.327Z,20.10
2019-05-30T18:34:08.833Z,20.00
2019-05-30T18:36:37.244Z,19.90
2019-05-30T18:39:07.919Z,19.90
2019-05-30T18:41:36.423Z,19.80
2019-05-30T18:44:05.392Z,19.70
2019-05-30T18:46:33.832Z,19.70
2019-05-30T18:49:02.288Z,19.60
2019-05-30T18:51:30.710Z,19.50
2019-05-30T18:53:59.157Z,19.40
2019-05-30T18:56:28.618Z,19.50
2019-05-30T18:58:57.211Z,19.40
2019-05-30T19:01:25.653Z,19.40
2019-05-30T19:03:54.080Z,19.30
2019-05-30T19:06:22.516Z,19.20
2019-05-30T19:08:51.044Z,19.10
2019-05-30T19:11:28.038Z,19.00
2019-05-30T19:13:49.647Z,19.00
2019-05-30T19:16:18.077Z,18.90
2019-05-30T19:18:46.530Z,18.80
2019-05-30T19:21:14.969Z,18.70
2019-05-30T19:23:43.451Z,18.60
2019-05-30T19:26:11.913Z,18.50
2019-05-30T19:28:40.355Z,18.40
2019-05-30T19:31:08.825Z,18.30
2019-05-30T19:33:37.325Z,18.20
2019-05-30T19:36:05.759Z,18.20
2019-05-30T19:38:35.402Z,18.10
2019-05-30T19:41:03.962Z,17.90
2019-05-30T19:43:33.720Z,17.90
2019-05-30T19:46:02.241Z,17.80
2019-05-30T19:48:30.691Z,17.80
2019-05-30T19:50:59.138Z,17.70
2019-05-30T19:53:28.729Z,17.70
2019-05-30T19:55:57.395Z,17.70
2019-05-30T19:58:25.843Z,17.60
2019-05-30T20:00:58.435Z,17.50
2019-05-30T20:03:36.503Z,17.50
2019-05-30T20:05:54.587Z,17.50
2019-05-30T20:08:23.036Z,17.50
2019-05-30T20:10:51.462Z,17.40
2019-05-30T20:13:19.894Z,17.30
2019-05-30T20:15:48.313Z,17.30
2019-05-30T20:18:16.770Z,17.40
2019-05-30T20:20:56.453Z,17.40
2019-05-30T20:23:15.379Z,17.30
2019-05-30T20:25:45.896Z,17.20
2019-05-30T20:28:13.989Z,17.30
2019-05-30T20:30:43.285Z,17.30
2019-05-30T20:33:11.840Z,17.30
2019-05-30T20:35:41.686Z,17.40
2019-05-30T20:38:10.449Z,17.40
2019-05-30T20:40:38.979Z,17.40
2019-05-30T20:43:07.389Z,17.40
2019-05-30T20:45:40.363Z,17.40
2019-05-30T20:48:05.983Z,17.40
2019-05-30T20:50:35.015Z,17.50
2019-05-30T20:53:03.495Z,17.50
2019-05-30T20:55:32.190Z,17.60
2019-05-30T20:58:00.651Z,17.60
2019-05-30T21:00:37.844Z,17.50
2019-05-30T21:03:06.419Z,17.60
2019-05-30T21:05:35.693Z,17.60
2019-05-30T21:08:05.959Z,17.60
2019-05-30T21:10:35.163Z,17.60
2019-05-30T21:13:05.529Z,17.50
2019-05-30T21:15:35.824Z,17.60
2019-05-30T21:18:05.503Z,17.50
2019-05-30T21:20:33.952Z,17.50
2019-05-30T21:23:02.449Z,17.40
2019-05-30T21:25:30.952Z,17.40
2019-05-30T21:27:59.487Z,17.30
2019-05-30T21:30:27.913Z,17.40
2019-05-30T21:32:56.563Z,17.40
2019-05-30T21:35:25.181Z,17.40
2019-05-30T21:37:53.768Z,17.40
2019-05-30T21:40:22.285Z,17.40
2019-05-30T21:43:05.047Z,17.40
2019-05-30T21:45:20.929Z,17.30
2019-05-30T21:47:49.406Z,17.30
2019-05-30T21:50:18.082Z,17.30
2019-05-30T21:52:47.890Z,17.30
2019-05-30T21:55:16.487Z,17.20
2019-05-30T21:57:45.941Z,17.20
2019-05-30T22:00:16.671Z,17.20
2019-05-30T22:02:53.959Z,17.10
2019-05-30T22:05:23.479Z,17.10
2019-05-30T22:07:52.008Z,17.10
2019-05-30T22:10:20.524Z,17.00
2019-05-30T22:12:49.704Z,17.00
2019-05-30T22:15:18.620Z,16.90
2019-05-30T22:17:47.884Z,16.90
2019-05-30T22:20:16.653Z,16.90
2019-05-30T22:22:46.157Z,17.00
2019-05-30T22:25:14.844Z,17.10
2019-05-30T22:27:44.460Z,17.00
2019-05-30T22:30:13.355Z,16.90
2019-05-30T22:32:42.615Z,16.80
2019-05-30T22:35:11.288Z,16.60
2019-05-30T22:37:39.722Z,16.50
2019-05-30T22:40:08.180Z,16.40
2019-05-30T22:42:36.614Z,16.50
2019-05-30T22:45:06.806Z,16.40
2019-05-30T22:47:35.250Z,16.50
2019-05-30T22:50:05.148Z,16.60
2019-05-30T22:52:33.564Z,16.60
2019-05-30T22:55:01.998Z,16.30
2019-05-30T22:57:30.446Z,16.40
2019-05-30T22:59:58.874Z,16.50
2019-05-30T23:02:27.305Z,16.50
2019-05-30T23:04:56.391Z,16.60
2019-05-30T23:07:24.860Z,16.50
2019-05-30T23:09:53.941Z,16.50
2019-05-30T23:12:22.526Z,16.50
2019-05-30T23:14:52.160Z,16.50
2019-05-30T23:17:20.850Z,16.60
2019-05-30T23:19:50.820Z,16.60
2019-05-30T23:22:19.560Z,16.50
2019-05-30T23:24:49.155Z,16.60
2019-05-30T23:27:17.669Z,16.60
2019-05-30T23:29:46.115Z,16.60
2019-05-30T23:32:14.560Z,16.70
2019-05-30T23:34:42.980Z,16.70
2019-05-30T23:37:11.440Z,16.60
2019-05-30T23:39:39.931Z,16.70
2019-05-30T23:42:08.408Z,16.80
2019-05-30T23:44:36.838Z,16.80
2019-05-30T23:47:05.379Z,16.80
2019-05-30T23:49:33.916Z,16.80
2019-05-30T23:52:02.361Z,16.80
2019-05-30T23:54:30.807Z,16.60
2019-05-30T23:57:00.649Z,16.60
2019-05-30T23:59:29.152Z,16.50
